Time;durP1;ratioP1;P1;durP2;ratioP2;P2;SDS_P1;SDS_P2;PMS_P1;PMS_P2;Temp;Humidity;BMP_temperature;BMP_pressure;BME280_temperature;BME280_humidity;BME280_pressure;Samples;Min_cycle;Max_cycle;Signal;HPM_P1;HPM_P2
2023/12/01 00:00:29;;;;;;;1.52;0.52;;;29.60;96.60;;;;;;5025573;28;20490;-69
2023/12/01 00:02:56;;;;;;;1.20;0.20;;;29.50;97.10;;;;;;5027390;28;20018;-70
2023/12/01 00:05:23;;;;;;;1.67;0.25;;;29.50;97.80;;;;;;5019093;28;20021;-67
2023/12/01 00:07:50;;;;;;;0.88;0.38;;;29.80;97.00;;;;;;5023319;28;20511;-67
2023/12/01 00:10:17;;;;;;;1.73;1.45;;;30.10;96.70;;;;;;5021536;28;20206;-68
2023/12/01 00:12:44;;;;;;;4.57;3.17;;;30.20;96.00;;;;;;5022266;28;20100;-69
2023/12/01 00:15:11;;;;;;;1.25;0.30;;;30.40;95.60;;;;;;5023383;28;20083;-68
2023/12/01 00:17:38;;;;;;;1.35;0.30;;;30.60;95.10;;;;;;5019226;28;20683;-69
2023/12/01 00:20:05;;;;;;;1.92;0.40;;;30.40;95.50;;;;;;5026840;28;20087;-70
2023/12/01 00:22:32;;;;;;;0.70;0.40;;;30.40;95.40;;;;;;5026377;28;20056;-67
2023/12/01 00:25:00;;;;;;;0.65;0.38;;;30.60;95.80;;;;;;5020977;28;20112;-69
2023/12/01 00:27:27;;;;;;;1.15;0.50;;;31.10;95.90;;;;;;5018928;28;20065;-67
2023/12/01 00:29:54;;;;;;;0.73;0.40;;;31.70;95.20;;;;;;5025827;28;20029;-71
2023/12/01 00:32:21;;;;;;;1.95;0.43;;;32.00;95.50;;;;;;5026495;28;20070;-69
2023/12/01 00:34:49;;;;;;;0.20;0.20;;;32.10;94.50;;;;;;5021290;28;20029;-66
2023/12/01 00:37:18;;;;;;;0.98;0.30;;;32.50;94.50;;;;;;5023235;28;20798;-67
2023/12/01 00:39:45;;;;;;;0.93;0.70;;;32.90;94.00;;;;;;5044983;23;20127;-68
2023/12/01 00:42:13;;;;;;;0.63;0.30;;;32.90;93.10;;;;;;5056051;28;20032;-67
2023/12/01 00:44:40;;;;;;;0.95;0.30;;;32.80;92.90;;;;;;5061257;28;20126;-69
2023/12/01 00:47:07;;;;;;;0.95;0.50;;;32.00;93.80;;;;;;5060372;28;20038;-70
2023/12/01 00:49:34;;;;;;;1.88;0.60;;;31.70;93.80;;;;;;5066704;28;20103;-68
2023/12/01 00:52:01;;;;;;;2.08;0.60;;;31.30;93.90;;;;;;5064607;28;20411;-69
2023/12/01 00:54:30;;;;;;;0.85;0.43;;;31.20;94.00;;;;;;5043139;28;20017;-67
2023/12/01 00:56:57;;;;;;;1.33;0.57;;;31.30;94.40;;;;;;5050744;28;20823;-68
2023/12/01 00:59:24;;;;;;;3.00;0.73;;;31.40;93.70;;;;;;5053948;28;20441;-71
2023/12/01 01:01:51;;;;;;;0.73;0.35;;;32.00;93.90;;;;;;5059386;28;20046;-69
2023/12/01 01:04:18;;;;;;;0.50;0.30;;;32.50;93.70;;;;;;5043568;28;20171;-71
2023/12/01 01:06:45;;;;;;;1.38;0.40;;;32.40;92.60;;;;;;5057900;28;20028;-69
2023/12/01 01:09:12;;;;;;;1.52;0.50;;;32.40;92.80;;;;;;5058119;28;20028;-69
2023/12/01 01:11:39;;;;;;;2.05;0.30;;;32.10;92.50;;;;;;5058334;28;20537;-69
2023/12/01 01:14:06;;;;;;;1.73;0.50;;;32.40;92.60;;;;;;5060618;28;20092;-68
2023/12/01 01:16:33;;;;;;;0.50;0.40;;;32.30;92.50;;;;;;5061204;28;20075;-71
2023/12/01 01:19:00;;;;;;;2.92;0.40;;;32.60;92.90;;;;;;5054062;28;20020;-70
2023/12/01 01:21:27;;;;;;;2.08;0.60;;;33.20;92.40;;;;;;5051537;28;20026;-70
2023/12/01 01:23:54;;;;;;;2.25;0.50;;;33.20;91.30;;;;;;5055554;28;20078;-68
2023/12/01 01:26:21;;;;;;;2.33;0.40;;;32.70;91.40;;;;;;5057370;28;20028;-68
2023/12/01 01:28:48;;;;;;;1.52;0.47;;;32.80;91.70;;;;;;5053842;28;22079;-68
2023/12/01 01:31:15;;;;;;;1.58;0.30;;;33.00;92.10;;;;;;5054426;28;20115;-69
2023/12/01 01:33:42;;;;;;;0.63;0.40;;;33.10;91.50;;;;;;5053177;28;20032;-69
2023/12/01 01:36:10;;;;;;;0.65;0.60;;;33.40;92.00;;;;;;5061946;28;20452;-69
2023/12/01 01:38:37;;;;;;;2.08;0.50;;;34.20;92.40;;;;;;5053494;28;20536;-71
2023/12/01 01:41:04;;;;;;;1.70;0.52;;;34.60;92.00;;;;;;5061989;28;20072;-70
2023/12/01 01:43:31;;;;;;;1.67;0.38;;;35.10;91.70;;;;;;5062370;28;20020;-69
2023/12/01 01:46:09;;;;;;;0.80;0.40;;;35.10;91.50;;;;;;5060403;28;20029;-70
2023/12/01 01:48:37;;;;;;;1.25;0.50;;;35.10;90.20;;;;;;5050123;28;20455;-70
2023/12/01 01:51:15;;;;;;;0.90;0.45;;;35.10;91.50;;;;;;5059873;28;20125;-68
2023/12/01 01:53:42;;;;;;;0.32;0.32;;;34.50;90.40;;;;;;5057171;28;20033;-70
2023/12/01 01:56:14;;;;;;;1.55;0.32;;;34.10;91.50;;;;;;5051333;28;20076;-68
2023/12/01 01:58:42;;;;;;;0.85;0.30;;;33.80;91.30;;;;;;5051884;28;20099;-71
2023/12/01 02:01:09;;;;;;;0.75;0.40;;;33.30;90.40;;;;;;5055724;28;20032;-68
2023/12/01 02:03:38;;;;;;;1.05;0.57;;;32.80;91.10;;;;;;5053928;28;20029;-68
2023/12/01 02:06:07;;;;;;;0.45;0.40;;;32.70;91.50;;;;;;5050479;28;20087;-67
2023/12/01 02:08:35;;;;;;;0.28;0.28;;;32.40;91.50;;;;;;5055082;28;20024;-68
2023/12/01 02:11:02;;;;;;;2.25;0.40;;;32.40;91.20;;;;;;5052558;28;20116;-67
2023/12/01 02:13:29;;;;;;;0.77;0.50;;;32.20;91.80;;;;;;5055494;28;20798;-67
2023/12/01 02:15:59;;;;;;;1.40;0.35;;;32.40;91.80;;;;;;5054283;28;20025;-68
2023/12/01 02:18:30;;;;;;;1.60;0.40;;;32.50;92.20;;;;;;5056679;28;20538;-68
2023/12/01 02:20:58;;;;;;;0.20;0.20;;;32.20;91.60;;;;;;5050703;28;20100;-70
2023/12/01 02:23:26;;;;;;;0.43;0.30;;;32.20;92.20;;;;;;5057501;28;20027;-68
2023/12/01 02:25:53;;;;;;;0.40;0.40;;;32.80;92.10;;;;;;5054997;28;20078;-74
2023/12/01 02:28:20;;;;;;;0.60;0.60;;;33.10;91.60;;;;;;5054907;28;20025;-69
2023/12/01 02:30:55;;;;;;;0.55;0.32;;;33.70;91.00;;;;;;5051255;28;20122;-67
2023/12/01 02:33:23;;;;;;;0.80;0.43;;;34.30;91.30;;;;;;5058687;28;20076;-69
2023/12/01 02:35:54;;;;;;;0.68;0.55;;;35.10;91.10;;;;;;5053341;28;20497;-68
2023/12/01 02:38:21;;;;;;;2.38;0.40;;;35.30;90.10;;;;;;5051280;28;20554;-68
2023/12/01 02:40:51;;;;;;;1.67;0.50;;;35.20;89.50;;;;;;5056518;28;20565;-72
2023/12/01 02:43:19;;;;;;;0.35;0.30;;;35.40;89.30;;;;;;5053025;28;20433;-68
2023/12/01 02:45:46;;;;;;;2.88;0.40;;;36.10;89.00;;;;;;5056382;28;20017;-71
2023/12/01 02:48:14;;;;;;;0.20;0.20;;;36.30;87.50;;;;;;5057854;28;20075;-74
2023/12/01 02:50:41;;;;;;;3.78;0.70;;;35.50;86.90;;;;;;5057207;28;20078;-68
2023/12/01 02:53:08;;;;;;;2.28;0.50;;;35.30;85.20;;;;;;5051565;28;20064;-70
2023/12/01 02:55:35;;;;;;;1.10;0.40;;;34.90;86.40;;;;;;5062790;28;20028;-76
2023/12/01 02:58:02;;;;;;;2.05;0.40;;;34.50;86.30;;;;;;5062375;28;20032;-70
2023/12/01 03:00:30;;;;;;;0.55;0.30;;;33.70;86.20;;;;;;5063274;28;20024;-77
2023/12/01 03:02:57;;;;;;;1.75;0.50;;;33.00;87.50;;;;;;5056820;28;20656;-70
2023/12/01 03:05:24;;;;;;;0.52;0.35;;;33.80;86.40;;;;;;5048859;28;20356;-75
2023/12/01 03:07:51;;;;;;;0.28;0.20;;;34.20;86.30;;;;;;5056337;28;20029;-69
2023/12/01 03:10:18;;;;;;;4.15;1.05;;;34.80;86.00;;;;;;5054524;28;20174;-69
2023/12/01 03:12:46;;;;;;;2.13;1.10;;;35.20;90.50;;;;;;5061463;28;20458;-68
2023/12/01 03:15:17;;;;;;;3.20;1.10;;;33.50;91.70;;;;;;5055802;28;20123;-69
2023/12/01 03:17:44;;;;;;;;;;;32.50;92.10;;;;;;5059894;28;20017;-69
2023/12/01 03:20:11;;;;;;;6.45;2.10;;;32.20;93.00;;;;;;5056217;28;19916;-69
2023/12/01 03:22:40;;;;;;;3.88;1.60;;;31.30;94.40;;;;;;5052299;28;20025;-72
2023/12/01 03:25:11;;;;;;;4.97;1.63;;;30.30;94.70;;;;;;5058654;28;20035;-74
2023/12/01 03:27:42;;;;;;;6.85;2.05;;;30.00;95.60;;;;;;5051148;28;20028;-70
2023/12/01 03:30:14;;;;;;;4.55;1.30;;;30.10;95.30;;;;;;5056345;28;20382;-71
2023/12/01 03:32:49;;;;;;;4.55;1.50;;;29.90;95.90;;;;;;5062742;28;20032;-74
2023/12/01 03:35:17;;;;;;;4.05;1.20;;;29.80;95.70;;;;;;5061715;28;20522;-71
2023/12/01 03:37:45;;;;;;;2.63;1.13;;;29.60;96.30;;;;;;5062275;28;20442;-72
2023/12/01 03:40:12;;;;;;;4.75;1.95;;;29.50;95.80;;;;;;5058847;28;20093;-74
2023/12/01 03:42:46;;;;;;;2.20;1.15;;;29.60;96.10;;;;;;5061875;28;20035;-69
2023/12/01 03:45:13;;;;;;;4.15;1.67;;;30.50;95.40;;;;;;5060750;28;20391;-72
2023/12/01 03:47:41;;;;;;;4.22;2.28;;;30.40;96.30;;;;;;5058255;28;20164;-68
2023/12/01 03:50:12;;;;;;;3.67;1.38;;;30.90;96.30;;;;;;5057302;28;20060;-72
2023/12/01 03:52:43;;;;;;;2.40;1.33;;;31.40;95.60;;;;;;5055951;28;20035;-68
2023/12/01 03:55:12;;;;;;;3.65;1.20;;;31.70;95.80;;;;;;5056195;28;20025;-68
2023/12/01 03:57:40;;;;;;;3.42;1.23;;;31.70;95.60;;;;;;5058611;28;20043;-68
2023/12/01 04:00:18;;;;;;;5.05;0.88;;;31.70;95.30;;;;;;5054527;28;20027;-71
2023/12/01 04:02:47;;;;;;;2.92;1.00;;;31.50;95.20;;;;;;5051425;28;20021;-67
2023/12/01 04:05:19;;;;;;;4.32;1.42;;;31.80;95.30;;;;;;5054244;28;20056;-67
2023/12/01 04:07:45;;;;;;;;;;;31.80;95.50;;;;;;5055050;28;20028;-68
2023/12/01 04:10:13;;;;;;;4.88;1.20;;;32.40;94.30;;;;;;5062060;28;19927;-71
2023/12/01 04:12:47;;;;;;;5.15;1.02;;;32.20;95.00;;;;;;5050735;28;20025;-74
2023/12/01 04:15:15;;;;;;;3.15;1.20;;;32.10;94.70;;;;;;5059968;28;20028;-68
2023/12/01 04:17:47;;;;;;;2.75;1.20;;;32.10;94.80;;;;;;5060753;28;20103;-71
2023/12/01 04:20:24;;;;;;;2.72;0.98;;;31.80;94.70;;;;;;5058114;28;20145;-74
2023/12/01 04:22:59;;;;;;;4.15;1.25;;;30.50;95.60;;;;;;5055016;28;20565;-69
2023/12/01 04:25:27;;;;;;;2.00;0.80;;;30.00;96.40;;;;;;5055855;28;20113;-67
2023/12/01 04:27:55;;;;;;;4.65;1.10;;;29.60;96.50;;;;;;5051253;28;20036;-71
2023/12/01 04:30:23;;;;;;;3.05;1.00;;;29.20;97.10;;;;;;5056406;28;20103;-71
2023/12/01 04:32:55;;;;;;;2.45;1.00;;;29.40;97.60;;;;;;5057879;28;20048;-69
2023/12/01 04:35:23;;;;;;;4.65;1.13;;;29.50;97.20;;;;;;5055185;28;20033;-74
2023/12/01 04:37:51;;;;;;;4.72;1.23;;;30.00;97.00;;;;;;5039293;28;20033;-74
2023/12/01 04:40:18;;;;;;;1.17;0.60;;;31.00;96.00;;;;;;5054045;28;20044;-75
2023/12/01 04:42:49;;;;;;;1.75;0.85;;;31.90;95.30;;;;;;5053542;28;20021;-70
2023/12/01 04:45:19;;;;;;;3.40;1.15;;;31.50;95.60;;;;;;5050186;28;20592;-69
2023/12/01 04:47:51;;;;;;;3.97;1.13;;;31.80;95.60;;;;;;5055382;28;20032;-69
2023/12/01 04:50:21;;;;;;;3.50;1.10;;;32.00;95.00;;;;;;5053870;28;20029;-74
2023/12/01 04:52:55;;;;;;;4.68;1.30;;;31.70;95.50;;;;;;5057844;28;20500;-74
2023/12/01 04:55:27;;;;;;;4.25;1.10;;;30.90;96.10;;;;;;5034172;28;20048;-69
2023/12/01 04:57:55;;;;;;;2.83;1.00;;;30.50;96.40;;;;;;5056860;28;20389;-73
2023/12/01 05:00:25;;;;;;;2.08;0.90;;;30.70;96.60;;;;;;5047980;28;20515;-74
2023/12/01 05:02:59;;;;;;;3.92;1.20;;;30.90;96.30;;;;;;5053806;28;20025;-78
2023/12/01 05:05:29;;;;;;;3.20;0.77;;;31.10;96.00;;;;;;5052656;28;20475;-75
2023/12/01 05:07:57;;;;;;;5.47;0.90;;;30.70;96.30;;;;;;5051793;28;20050;-75
2023/12/01 05:10:27;;;;;;;3.45;1.20;;;30.30;96.90;;;;;;5031188;28;20124;-69
2023/12/01 05:12:56;;;;;;;1.48;1.00;;;30.80;96.50;;;;;;5044528;28;20021;-76
2023/12/01 05:15:24;;;;;;;7.55;1.00;;;30.80;96.40;;;;;;5034205;28;20390;-74
2023/12/01 05:17:56;;;;;;;5.07;0.98;;;30.40;96.70;;;;;;5052862;28;20533;-74
2023/12/01 05:20:25;;;;;;;2.38;0.80;;;29.50;97.40;;;;;;5052715;28;20033;-72
2023/12/01 05:22:54;;;;;;;4.68;1.00;;;29.50;97.90;;;;;;5053424;28;20028;-73
2023/12/01 05:25:22;;;;;;;4.93;1.00;;;30.60;97.40;;;;;;5034768;28;20065;-76
2023/12/01 05:27:57;;;;;;;3.58;0.95;;;30.40;96.60;;;;;;5048922;28;20024;-73
2023/12/01 05:30:26;;;;;;;4.15;1.23;;;29.70;97.20;;;;;;5049753;28;20024;-72
2023/12/01 05:32:55;;;;;;;3.30;1.27;;;29.10;97.60;;;;;;5051497;28;20155;-74
2023/12/01 05:35:23;;;;;;;2.90;1.10;;;28.10;98.80;;;;;;5051393;28;20197;-73
2023/12/01 05:37:54;;;;;;;2.10;0.93;;;27.80;99.40;;;;;;5056041;28;20042;-70
2023/12/01 05:40:27;;;;;;;2.42;0.98;;;27.60;99.60;;;;;;5038422;28;20052;-74
2023/12/01 05:42:56;;;;;;;3.67;0.80;;;27.80;99.60;;;;;;5057303;28;20032;-73
2023/12/01 05:45:26;;;;;;;2.50;0.93;;;27.60;99.90;;;;;;5057999;28;20115;-72
2023/12/01 05:47:54;;;;;;;4.95;1.08;;;27.40;99.90;;;;;;5051650;28;20054;-72
2023/12/01 05:50:25;;;;;;;3.33;1.00;;;27.00;99.90;;;;;;5043890;28;21875;-74
2023/12/01 05:52:55;;;;;;;3.33;1.33;;;26.80;99.90;;;;;;5026805;28;20046;-71
2023/12/01 05:55:24;;;;;;;1.17;0.70;;;26.90;99.90;;;;;;5046537;28;20467;-72
2023/12/01 05:57:56;;;;;;;4.63;1.20;;;26.80;99.90;;;;;;5047194;28;20017;-71
2023/12/01 06:00:31;;;;;;;4.82;1.30;;;26.80;99.90;;;;;;5049360;28;20028;-72
2023/12/01 06:03:00;;;;;;;3.88;0.80;;;26.70;99.90;;;;;;5028193;28;20121;-74
2023/12/01 06:05:28;;;;;;;2.95;1.10;;;26.50;99.90;;;;;;5050331;28;20029;-70
2023/12/01 06:07:57;;;;;;;2.08;0.65;;;26.30;99.90;;;;;;5047328;28;20047;-71
2023/12/01 06:10:26;;;;;;;3.35;1.10;;;26.20;99.90;;;;;;5037997;28;20035;-70
2023/12/01 06:12:53;;;;;;;1.77;0.73;;;26.40;99.90;;;;;;5027118;28;20456;-73
2023/12/01 06:15:21;;;;;;;2.72;1.05;;;26.30;99.90;;;;;;5062251;28;20036;-70
2023/12/01 06:17:50;;;;;;;2.47;1.00;;;26.20;99.90;;;;;;5062112;28;20020;-70
2023/12/01 06:20:20;;;;;;;2.63;0.90;;;25.80;99.90;;;;;;5062940;28;20024;-69
2023/12/01 06:23:01;;;;;;;2.80;0.85;;;25.60;99.90;;;;;;5059973;28;20417;-73
2023/12/01 06:25:31;;;;;;;2.10;0.85;;;25.70;99.90;;;;;;5059802;28;20091;-72
2023/12/01 06:28:01;;;;;;;2.63;0.88;;;25.80;99.90;;;;;;5055765;28;20109;-74
2023/12/01 06:30:33;;;;;;;6.78;1.30;;;25.80;99.90;;;;;;5060860;28;20546;-70
2023/12/01 06:33:03;;;;;;;3.17;0.95;;;25.90;99.90;;;;;;5061627;28;20059;-70
2023/12/01 06:35:30;;;;;;;3.38;0.80;;;25.90;99.90;;;;;;5055974;28;20043;-69
2023/12/01 06:37:57;;;;;;;4.07;0.93;;;26.10;99.90;;;;;;5057352;28;20387;-71
2023/12/01 06:40:24;;;;;;;2.55;0.90;;;25.80;99.90;;;;;;5058805;28;20043;-70
2023/12/01 06:42:53;;;;;;;2.67;1.00;;;25.60;99.90;;;;;;5057955;28;20031;-72
2023/12/01 06:45:23;;;;;;;5.13;1.00;;;25.50;99.90;;;;;;5059965;28;20052;-71
2023/12/01 06:47:51;;;;;;;6.03;1.27;;;25.60;99.90;;;;;;5054517;28;20081;-71
2023/12/01 06:50:19;;;;;;;3.33;1.52;;;25.50;99.90;;;;;;5056551;28;20028;-73
2023/12/01 06:52:51;;;;;;;6.85;3.80;;;25.40;99.90;;;;;;5059329;28;20036;-71
2023/12/01 06:55:18;;;;;;;3.50;1.40;;;25.40;99.90;;;;;;5054010;28;20047;-69
2023/12/01 06:57:47;;;;;;;9.30;1.75;;;25.60;99.90;;;;;;5058648;28;20028;-70
2023/12/01 07:00:29;;;;;;;4.85;1.10;;;26.10;99.90;;;;;;5058267;28;20028;-72
2023/12/01 07:02:59;;;;;;;5.45;1.20;;;26.30;99.90;;;;;;5058422;28;20036;-73
2023/12/01 07:05:31;;;;;;;3.80;1.10;;;25.90;99.90;;;;;;5057221;28;20806;-71
2023/12/01 07:07:58;;;;;;;2.88;0.88;;;25.50;99.90;;;;;;5058890;28;20032;-72
2023/12/01 07:10:26;;;;;;;5.57;1.10;;;25.20;99.90;;;;;;5060514;28;20115;-71
2023/12/01 07:12:54;;;;;;;7.88;0.98;;;25.10;99.90;;;;;;5058468;28;20082;-72
2023/12/01 07:15:22;;;;;;;3.05;0.93;;;25.00;99.90;;;;;;5060330;28;20033;-73
2023/12/01 07:17:54;;;;;;;6.70;1.10;;;25.10;99.90;;;;;;5058461;28;20016;-71
2023/12/01 07:20:21;;;;;;;5.72;1.55;;;26.60;99.90;;;;;;5058754;28;20024;-71
2023/12/01 07:22:49;;;;;;;4.00;1.10;;;28.50;99.90;;;;;;5060957;28;20043;-70
2023/12/01 07:25:24;;;;;;;3.28;0.90;;;29.50;99.00;;;;;;5061549;28;20036;-73
2023/12/01 07:28:03;;;;;;;2.20;0.80;;;29.90;98.20;;;;;;5058973;28;20025;-69
2023/12/01 07:30:30;;;;;;;3.70;1.30;;;30.20;98.30;;;;;;5058724;28;20043;-73
2023/12/01 07:32:59;;;;;;;5.03;1.55;;;30.80;97.50;;;;;;5042985;28;20056;-69
2023/12/01 07:35:26;;;;;;;4.95;1.30;;;30.30;97.70;;;;;;5058601;28;21460;-72
2023/12/01 07:37:54;;;;;;;3.20;1.15;;;29.50;98.00;;;;;;5054661;28;20075;-72
2023/12/01 07:40:21;;;;;;;3.08;1.30;;;28.50;99.10;;;;;;5058878;28;20068;-72
2023/12/01 07:42:53;;;;;;;2.05;0.98;;;27.60;99.90;;;;;;5060961;28;20048;-73
2023/12/01 07:45:21;;;;;;;2.75;0.82;;;27.20;99.90;;;;;;5059113;28;20028;-70
2023/12/01 07:47:50;;;;;;;3.95;0.98;;;27.10;99.90;;;;;;5056791;28;20040;-72
2023/12/01 07:50:19;;;;;;;6.53;1.52;;;26.60;99.90;;;;;;5055074;28;20043;-70
2023/12/01 07:52:47;;;;;;;7.40;1.30;;;26.90;99.90;;;;;;5050162;28;20032;-69
2023/12/01 07:55:14;;;;;;;4.00;1.70;;;27.10;99.90;;;;;;5046766;28;20167;-69
2023/12/01 07:57:42;;;;;;;3.60;1.02;;;26.10;99.90;;;;;;5050788;28;20021;-71
2023/12/01 08:00:19;;;;;;;3.13;0.80;;;26.20;99.90;;;;;;5050864;28;20342;-72
2023/12/01 08:02:53;;;;;;;5.38;1.20;;;26.30;99.90;;;;;;5050879;28;20032;-69
2023/12/01 08:05:20;;;;;;;2.60;1.17;;;26.00;99.90;;;;;;5051449;28;20442;-69
2023/12/01 08:07:52;;;;;;;3.08;1.10;;;26.00;99.90;;;;;;5050543;28;20056;-70
2023/12/01 08:10:22;;;;;;;4.30;0.90;;;25.80;99.90;;;;;;5052294;28;20383;-71
2023/12/01 08:12:51;;;;;;;3.28;1.00;;;25.70;99.90;;;;;;5056075;28;20033;-70
2023/12/01 08:15:18;;;;;;;5.97;1.02;;;25.50;99.90;;;;;;5057426;28;20546;-69
2023/12/01 08:17:45;;;;;;;3.50;1.80;;;25.00;99.90;;;;;;5059000;28;20478;-72
2023/12/01 08:20:14;;;;;;;6.63;1.15;;;24.60;99.90;;;;;;5058296;28;20455;-71
2023/12/01 08:22:43;;;;;;;4.20;1.52;;;24.30;99.90;;;;;;5052926;28;20035;-71
2023/12/01 08:25:11;;;;;;;3.88;1.13;;;24.00;99.90;;;;;;5030761;28;20028;-71
2023/12/01 08:27:39;;;;;;;2.47;0.95;;;23.90;99.90;;;;;;5047360;28;20032;-69
2023/12/01 08:30:07;;;;;;;6.72;1.65;;;23.70;99.90;;;;;;5044891;28;20028;-71
2023/12/01 08:32:34;;;;;;;4.55;1.33;;;23.50;99.90;;;;;;5044885;28;20044;-71
2023/12/01 08:35:01;;;;;;;3.28;1.00;;;23.40;99.90;;;;;;5042234;28;20033;-69
2023/12/01 08:37:28;;;;;;;1.80;0.68;;;23.40;99.90;;;;;;5045985;28;20082;-71
2023/12/01 08:39:55;;;;;;;3.28;1.00;;;23.20;99.90;;;;;;5045691;28;20036;-74
2023/12/01 08:42:22;;;;;;;5.43;1.17;;;23.10;99.90;;;;;;5044008;28;20144;-69
2023/12/01 08:44:49;;;;;;;3.08;1.17;;;23.10;99.90;;;;;;5044573;28;20039;-69
2023/12/01 08:47:20;;;;;;;5.05;1.38;;;22.90;99.90;;;;;;5043368;28;20146;-73
2023/12/01 08:49:49;;;;;;;6.22;1.27;;;22.80;99.90;;;;;;5042448;28;20025;-73
2023/12/01 08:52:16;;;;;;;6.22;1.70;;;22.70;99.90;;;;;;5042623;28;20052;-66
2023/12/01 08:54:43;;;;;;;7.07;1.63;;;22.60;99.90;;;;;;5042947;28;20029;-72
2023/12/01 08:57:10;;;;;;;8.00;2.08;;;22.50;99.90;;;;;;5040636;28;20060;-67
2023/12/01 08:59:37;;;;;;;3.08;1.48;;;22.40;99.90;;;;;;5044848;28;20021;-72
2023/12/01 09:02:05;;;;;;;4.80;1.40;;;22.40;99.90;;;;;;5040983;28;20029;-73
2023/12/01 09:04:32;;;;;;;4.43;1.27;;;22.40;99.90;;;;;;5041281;28;20025;-67
2023/12/01 09:06:59;;;;;;;5.30;1.50;;;22.30;99.90;;;;;;5045133;28;20025;-71
2023/12/01 09:09:27;;;;;;;4.90;1.52;;;22.40;99.90;;;;;;5044641;28;20710;-67
2023/12/01 09:11:54;;;;;;;4.47;1.45;;;22.30;99.90;;;;;;5043827;28;20033;-66
2023/12/01 09:14:21;;;;;;;7.75;2.78;;;22.30;99.90;;;;;;5043768;28;20054;-72
2023/12/01 09:16:48;;;;;;;7.30;1.95;;;22.30;99.90;;;;;;5026625;28;20436;-72
2023/12/01 09:19:15;;;;;;;6.28;1.80;;;22.30;99.90;;;;;;5043814;28;20570;-67
2023/12/01 09:21:42;;;;;;;3.60;1.77;;;22.20;99.90;;;;;;5045285;28;20533;-66
2023/12/01 09:24:09;;;;;;;5.28;1.60;;;22.20;99.90;;;;;;5044386;28;20123;-71
2023/12/01 09:26:36;;;;;;;8.60;2.08;;;22.20;99.90;;;;;;5042868;28;20087;-67
2023/12/01 09:29:03;;;;;;;6.90;1.52;;;22.20;99.90;;;;;;5044978;28;20032;-72
2023/12/01 09:31:30;;;;;;;4.78;1.80;;;22.20;99.90;;;;;;5047488;28;20025;-67
2023/12/01 09:33:57;;;;;;;7.82;1.52;;;22.20;99.90;;;;;;5050533;28;20021;-66
2023/12/01 09:36:26;;;;;;;8.48;1.92;;;22.10;99.90;;;;;;5059332;28;20406;-67
2023/12/01 09:38:53;;;;;;;11.13;2.47;;;22.10;99.90;;;;;;5059616;28;20132;-67
2023/12/01 09:41:20;;;;;;;6.78;1.80;;;22.10;99.90;;;;;;5059660;28;20028;-66
2023/12/01 09:43:48;;;;;;;6.80;1.60;;;22.10;99.90;;;;;;5059849;28;20032;-67
2023/12/01 09:46:15;;;;;;;5.70;1.73;;;22.00;99.90;;;;;;5060870;28;20107;-69
2023/12/01 09:48:44;;;;;;;5.03;1.77;;;21.90;99.90;;;;;;5058219;28;20024;-70
2023/12/01 09:51:11;;;;;;;4.97;2.10;;;21.90;99.90;;;;;;5060822;28;20017;-70
2023/12/01 09:53:38;;;;;;;4.82;2.10;;;21.90;99.90;;;;;;5060488;28;20021;-66
2023/12/01 09:56:06;;;;;;;5.85;1.95;;;22.00;99.90;;;;;;5051773;28;20419;-66
2023/12/01 09:58:35;;;;;;;5.68;1.90;;;22.00;99.90;;;;;;5048202;28;20029;-67
2023/12/01 10:01:02;;;;;;;5.55;2.03;;;22.10;99.90;;;;;;5046485;28;20028;-70
2023/12/01 10:03:29;;;;;;;5.03;1.85;;;22.00;99.90;;;;;;5027860;28;20387;-70
2023/12/01 10:05:59;;;;;;;9.13;2.17;;;22.00;99.90;;;;;;5045990;28;20106;-70
2023/12/01 10:08:32;;;;;;;3.10;1.40;;;22.00;99.90;;;;;;5048616;28;20410;-66
2023/12/01 10:10:58;;;;;;;;;;;21.90;99.90;;;;;;5046873;28;20044;-71
2023/12/01 10:13:30;;;;;;;7.72;2.13;;;22.00;99.90;;;;;;5049212;28;20279;-66
2023/12/01 10:15:59;;;;;;;5.40;2.03;;;22.00;99.90;;;;;;5048491;28;20045;-64
2023/12/01 10:18:26;;;;;;;5.80;2.17;;;22.10;99.90;;;;;;5046546;28;20062;-67
2023/12/01 10:21:03;;;;;;;8.18;1.95;;;22.10;99.90;;;;;;5045559;28;20111;-69
2023/12/01 10:23:33;;;;;;;8.90;2.88;;;22.10;99.90;;;;;;5039823;28;20560;-67
2023/12/01 10:26:03;;;;;;;4.05;1.67;;;22.00;99.90;;;;;;4687745;28;10000022;-68
2023/12/01 10:28:41;;;;;;;7.38;2.10;;;22.00;99.90;;;;;;5037544;28;21122;-69
2023/12/01 10:31:09;;;;;;;8.40;2.28;;;21.90;99.90;;;;;;5055745;28;20447;-67
2023/12/01 10:33:36;;;;;;;8.13;2.95;;;21.90;99.90;;;;;;5053747;28;20890;-67
2023/12/01 10:36:09;;;;;;;6.25;1.80;;;21.90;99.90;;;;;;5052863;28;20033;-70
2023/12/01 10:38:39;;;;;;;8.45;2.38;;;21.90;99.90;;;;;;5054450;28;20024;-70
2023/12/01 10:41:09;;;;;;;4.28;1.90;;;22.10;99.90;;;;;;5053795;28;20045;-68
2023/12/01 10:43:37;;;;;;;6.65;1.80;;;22.20;99.90;;;;;;5053416;28;20033;-69
2023/12/01 10:46:05;;;;;;;2.83;1.50;;;22.20;99.90;;;;;;5052908;28;20036;-68
2023/12/01 10:48:34;;;;;;;11.27;2.30;;;22.20;99.90;;;;;;5053596;28;20103;-72
2023/12/01 10:51:05;;;;;;;7.40;1.92;;;22.20;99.90;;;;;;5052465;28;20551;-68
2023/12/01 10:53:32;;;;;;;7.22;2.42;;;22.20;99.90;;;;;;5054449;28;20028;-68
2023/12/01 10:56:04;;;;;;;7.85;2.45;;;22.20;99.90;;;;;;5055166;28;20091;-71
2023/12/01 10:58:36;;;;;;;6.40;1.83;;;22.20;99.90;;;;;;5051519;28;20294;-72
2023/12/01 11:01:04;;;;;;;6.97;1.75;;;22.20;99.90;;;;;;5043149;28;20028;-69
2023/12/01 11:03:32;;;;;;;10.77;1.90;;;22.20;99.90;;;;;;5046636;28;20036;-70
2023/12/01 11:06:23;;;;;;;4.38;2.05;;;22.20;99.90;;;;;;5052527;28;20031;-67
2023/12/01 11:09:11;;;;;;;7.80;1.80;;;22.20;99.90;;;;;;5058263;28;20028;-69
2023/12/01 11:11:59;;;;;;;3.67;1.10;;;22.10;99.90;;;;;;5039255;28;20029;-69
2023/12/01 11:14:27;;;;;;;7.18;2.30;;;22.00;99.90;;;;;;5058959;28;20035;-71
2023/12/01 11:16:54;;;;;;;5.80;1.92;;;21.90;99.90;;;;;;5059089;28;20107;-68
2023/12/01 11:19:24;;;;;;;6.63;1.58;;;21.90;99.90;;;;;;5055529;28;20105;-71
2023/12/01 11:21:57;;;;;;;5.50;1.42;;;21.90;99.90;;;;;;5044727;28;20474;-71
2023/12/01 11:24:26;;;;;;;6.72;2.33;;;21.80;99.90;;;;;;5046151;28;20112;-71
2023/12/01 11:26:54;;;;;;;6.75;2.00;;;21.80;99.90;;;;;;5044100;28;20116;-67
2023/12/01 11:29:35;;;;;;;3.33;1.80;;;21.70;99.90;;;;;;5044562;28;20903;-67
2023/12/01 11:32:05;;;;;;;3.58;1.63;;;21.70;99.90;;;;;;5045861;28;20035;-70
2023/12/01 11:34:33;;;;;;;6.90;1.95;;;21.70;99.90;;;;;;5044664;28;20028;-70
2023/12/01 11:37:06;;;;;;;4.45;1.83;;;21.70;99.90;;;;;;5046358;28;20079;-66
2023/12/01 11:39:34;;;;;;;6.13;1.67;;;21.70;99.90;;;;;;5044682;28;20037;-69
2023/12/01 11:42:01;;;;;;;4.47;1.70;;;21.70;99.90;;;;;;5045740;28;20117;-73
2023/12/01 11:44:50;;;;;;;4.25;1.50;;;21.70;99.90;;;;;;5035370;28;20054;-68
2023/12/01 11:47:17;;;;;;;3.08;1.50;;;21.70;99.90;;;;;;5057453;28;20044;-73
2023/12/01 11:49:45;;;;;;;4.30;1.60;;;21.60;99.90;;;;;;5058328;28;20087;-68
2023/12/01 11:52:14;;;;;;;5.70;1.67;;;21.60;99.90;;;;;;5055358;28;20039;-74
2023/12/01 11:54:42;;;;;;;5.10;1.50;;;21.50;99.90;;;;;;5040044;28;20120;-68
2023/12/01 11:57:11;;;;;;;2.05;1.10;;;21.50;99.90;;;;;;5057091;28;20063;-73
2023/12/01 11:59:38;;;;;;;4.22;1.63;;;21.50;99.90;;;;;;5058740;28;20020;-73
2023/12/01 12:02:06;;;;;;;2.80;1.13;;;21.40;99.90;;;;;;5051594;28;20039;-68
2023/12/01 12:04:33;;;;;;;4.15;1.30;;;21.30;99.90;;;;;;5047202;28;20828;-74
2023/12/01 12:07:01;;;;;;;3.35;1.10;;;21.30;99.90;;;;;;5047423;28;20028;-68
2023/12/01 12:09:32;;;;;;;5.30;1.25;;;21.30;99.90;;;;;;5047599;28;20029;-68
2023/12/01 12:12:01;;;;;;;3.38;1.40;;;21.40;99.90;;;;;;5046628;28;20522;-73
2023/12/01 12:14:29;;;;;;;2.80;1.27;;;21.40;99.90;;;;;;5044569;28;20024;-74
2023/12/01 12:16:58;;;;;;;2.95;1.00;;;21.40;99.90;;;;;;5047422;28;20700;-66
2023/12/01 12:19:24;;;;;;;5.97;1.02;;;21.40;99.90;;;;;;5048627;28;20495;-67
2023/12/01 12:21:53;;;;;;;4.60;1.90;;;21.40;99.90;;;;;;5046611;28;20166;-67
2023/12/01 12:24:20;;;;;;;3.20;1.48;;;21.50;99.90;;;;;;5047145;28;20128;-66
2023/12/01 12:26:57;;;;;;;3.13;1.20;;;21.40;99.90;;;;;;5046278;28;20075;-67
2023/12/01 12:29:24;;;;;;;4.00;1.10;;;21.40;99.90;;;;;;5046697;28;20891;-73
2023/12/01 12:31:51;;;;;;;5.82;1.17;;;21.40;99.90;;;;;;5047862;28;20029;-74
2023/12/01 12:34:19;;;;;;;3.20;1.52;;;21.30;99.90;;;;;;5045058;28;20032;-73
2023/12/01 12:36:50;;;;;;;2.33;1.13;;;21.30;99.90;;;;;;5046969;28;20162;-68
2023/12/01 12:39:17;;;;;;;2.00;1.02;;;21.20;99.90;;;;;;5051371;23;20053;-74
2023/12/01 12:41:53;;;;;;;2.63;1.40;;;21.30;99.90;;;;;;5040348;28;20037;-73
2023/12/01 12:44:20;;;;;;;3.75;1.15;;;21.20;99.90;;;;;;5021645;28;20365;-67
2023/12/01 12:47:02;;;;;;;3.50;1.50;;;21.10;99.90;;;;;;5038446;28;20021;-74
2023/12/01 12:49:35;;;;;;;2.72;1.25;;;21.10;99.90;;;;;;5038618;28;20108;-73
2023/12/01 12:52:03;;;;;;;4.22;1.15;;;21.10;99.90;;;;;;5036607;28;20043;-66
2023/12/01 12:54:30;;;;;;;3.25;1.38;;;21.10;99.90;;;;;;5039221;28;20091;-74
2023/12/01 12:56:57;;;;;;;4.40;1.27;;;21.00;99.90;;;;;;5036958;28;20116;-73